createdAt,value
2017-09-29T00:02:01.831Z,19.00
2017-09-29T00:04:30.048Z,19.77
2017-09-29T00:06:57.671Z,18.40
2017-09-29T00:09:25.137Z,18.17
2017-09-29T00:11:52.572Z,19.40
2017-09-29T00:14:20.656Z,19.47
2017-09-29T00:16:48.100Z,19.93
2017-09-29T00:19:15.580Z,18.57
2017-09-29T00:21:43.036Z,20.43
2017-09-29T00:24:10.539Z,20.83
2017-09-29T00:26:38.772Z,18.33
2017-09-29T00:29:06.217Z,17.70
2017-09-29T00:31:33.687Z,19.33
2017-09-29T00:34:01.904Z,18.17
2017-09-29T00:36:29.393Z,18.70
2017-09-29T00:38:56.835Z,18.10
2017-09-29T00:41:24.347Z,16.47
2017-09-29T00:43:51.818Z,19.63
2017-09-29T00:46:19.263Z,19.47
2017-09-29T00:48:46.732Z,17.07
2017-09-29T00:51:14.964Z,18.77
2017-09-29T00:53:42.428Z,18.30
2017-09-29T00:56:09.940Z,18.83
2017-09-29T00:58:37.396Z,17.80
2017-09-29T01:01:04.864Z,16.50
2017-09-29T01:03:32.345Z,18.90
2017-09-29T01:05:59.822Z,18.27
2017-09-29T01:08:28.060Z,18.17
2017-09-29T01:10:56.279Z,19.03
2017-09-29T01:13:23.758Z,17.93
2017-09-29T01:15:51.216Z,19.37
2017-09-29T01:18:18.703Z,19.03
2017-09-29T01:20:46.148Z,19.70
2017-09-29T01:23:14.412Z,18.60
2017-09-29T01:25:42.867Z,20.20
2017-09-29T01:28:10.346Z,18.77
2017-09-29T01:30:37.820Z,19.40
2017-09-29T01:33:05.290Z,20.37
2017-09-29T01:35:32.752Z,20.23
2017-09-29T01:38:00.236Z,20.23
2017-09-29T01:40:27.700Z,18.73
2017-09-29T01:42:55.940Z,19.73
2017-09-29T01:45:23.391Z,20.13
2017-09-29T01:47:50.870Z,18.40
2017-09-29T01:50:18.321Z,18.53
2017-09-29T01:52:46.578Z,20.30
2017-09-29T01:55:14.167Z,20.20
2017-09-29T01:57:41.724Z,18.50
2017-09-29T02:00:09.331Z,20.30
2017-09-29T02:02:37.607Z,18.80
2017-09-29T02:05:05.071Z,19.70
2017-09-29T02:07:32.539Z,21.17
2017-09-29T02:10:00.896Z,19.90
2017-09-29T02:12:29.346Z,19.97
2017-09-29T02:14:57.460Z,19.33
2017-09-29T02:17:25.683Z,21.00
2017-09-29T02:19:53.141Z,17.90
2017-09-29T02:22:21.391Z,20.73
2017-09-29T02:24:48.947Z,21.27
2017-09-29T02:27:16.441Z,21.73
2017-09-29T02:29:43.908Z,20.33
2017-09-29T02:32:12.141Z,19.20
2017-09-29T02:34:40.356Z,21.77
2017-09-29T02:37:07.834Z,20.53
2017-09-29T02:39:35.294Z,19.90
2017-09-29T02:42:03.524Z,22.90
2017-09-29T02:44:30.988Z,19.17
2017-09-29T02:46:58.587Z,24.23
2017-09-29T02:49:26.053Z,19.27
2017-09-29T02:51:53.491Z,21.97
2017-09-29T02:54:20.965Z,22.00
2017-09-29T02:56:51.929Z,22.60
2017-09-29T02:59:20.258Z,26.20
2017-09-29T03:01:49.141Z,20.87
2017-09-29T03:04:18.857Z,20.67
2017-09-29T03:06:46.373Z,20.50
2017-09-29T03:09:13.816Z,21.30
2017-09-29T03:11:41.293Z,21.80
2017-09-29T03:14:08.839Z,20.00
2017-09-29T03:16:37.084Z,18.77
2017-09-29T03:19:04.546Z,20.23
2017-09-29T03:21:32.048Z,19.60
2017-09-29T03:23:59.497Z,21.77
2017-09-29T03:26:26.963Z,21.00
2017-09-29T03:28:58.408Z,18.40
2017-09-29T03:31:26.121Z,20.30
2017-09-29T03:33:53.597Z,19.03
2017-09-29T03:36:21.129Z,19.23
2017-09-29T03:38:49.391Z,20.80
2017-09-29T03:41:20.810Z,20.90
2017-09-29T03:43:48.284Z,22.10
2017-09-29T03:46:15.762Z,21.03
2017-09-29T03:48:43.249Z,19.57
2017-09-29T03:51:12.894Z,21.20
2017-09-29T03:53:41.567Z,20.70
2017-09-29T03:56:09.393Z,20.70
2017-09-29T03:58:37.374Z,20.70
2017-09-29T04:01:04.838Z,20.20
2017-09-29T04:03:33.053Z,21.77
2017-09-29T04:06:00.530Z,21.33
2017-09-29T04:08:27.969Z,21.67
2017-09-29T04:10:55.422Z,23.67
2017-09-29T04:13:22.869Z,24.27
2017-09-29T04:15:51.114Z,22.83
2017-09-29T04:18:18.561Z,21.23
2017-09-29T04:20:51.237Z,23.30
2017-09-29T04:23:19.476Z,23.73
2017-09-29T04:25:46.928Z,22.50
2017-09-29T04:28:14.406Z,22.60
2017-09-29T04:30:41.935Z,22.67
2017-09-29T04:33:09.408Z,22.30
2017-09-29T04:35:36.856Z,24.03
2017-09-29T04:38:05.096Z,24.30
2017-09-29T04:40:33.316Z,23.57
2017-09-29T04:43:00.766Z,23.23
2017-09-29T04:45:29.028Z,22.40
2017-09-29T04:47:56.475Z,25.00
2017-09-29T04:50:23.973Z,25.23
2017-09-29T04:52:51.412Z,25.63
2017-09-29T04:55:18.880Z,23.73
2017-09-29T04:57:46.361Z,23.63
2017-09-29T05:00:13.805Z,23.33
2017-09-29T05:02:41.269Z,24.57
2017-09-29T05:05:08.717Z,24.50
2017-09-29T05:07:36.182Z,25.17
2017-09-29T05:10:07.606Z,24.80
2017-09-29T05:12:35.852Z,23.30
2017-09-29T05:15:03.298Z,23.37
2017-09-29T05:17:30.743Z,22.73
2017-09-29T05:19:59.004Z,27.70
2017-09-29T05:22:26.456Z,26.00
2017-09-29T05:24:53.906Z,26.47
2017-09-29T05:27:25.240Z,26.97
2017-09-29T05:29:53.503Z,31.60
2017-09-29T05:32:20.986Z,29.40
2017-09-29T05:34:48.555Z,27.83
2017-09-29T05:37:16.157Z,27.90
2017-09-29T05:39:43.616Z,29.73
2017-09-29T05:42:11.092Z,27.70
2017-09-29T05:44:38.628Z,27.40
2017-09-29T05:47:06.103Z,28.00
2017-09-29T05:49:33.555Z,27.10
2017-09-29T05:52:01.784Z,26.63
2017-09-29T05:54:29.251Z,26.43
2017-09-29T05:56:56.718Z,28.63
2017-09-29T05:59:24.192Z,27.97
2017-09-29T06:01:51.655Z,26.57
2017-09-29T06:04:19.892Z,27.93
2017-09-29T06:06:47.344Z,29.30
2017-09-29T06:09:14.805Z,28.23
2017-09-29T06:11:42.252Z,25.57
2017-09-29T06:14:10.475Z,25.73
2017-09-29T06:16:38.800Z,24.40
2017-09-29T06:19:06.317Z,24.93
2017-09-29T06:21:34.606Z,23.37
2017-09-29T06:24:02.082Z,24.73
2017-09-29T06:26:29.531Z,27.13
2017-09-29T06:28:57.025Z,27.47
2017-09-29T06:31:24.497Z,31.00
2017-09-29T06:33:51.953Z,29.03
2017-09-29T06:36:19.416Z,27.00
2017-09-29T06:38:46.865Z,27.03
2017-09-29T06:41:14.349Z,29.43
2017-09-29T06:43:41.906Z,24.80
2017-09-29T06:46:09.379Z,28.53
2017-09-29T06:48:37.616Z,24.07
2017-09-29T06:51:05.096Z,26.70
2017-09-29T06:53:32.632Z,24.63
2017-09-29T06:56:00.199Z,22.80
2017-09-29T06:58:28.476Z,23.87
2017-09-29T07:00:56.763Z,24.53
2017-09-29T07:03:24.231Z,24.90
2017-09-29T07:05:51.689Z,24.13
2017-09-29T07:08:19.164Z,26.30
2017-09-29T07:10:46.700Z,26.50
2017-09-29T07:13:14.153Z,31.13
2017-09-29T07:15:42.396Z,25.20
2017-09-29T07:18:10.607Z,27.27
2017-09-29T07:20:38.080Z,25.53
2017-09-29T07:23:05.542Z,27.23
2017-09-29T07:25:34.362Z,25.90
2017-09-29T07:28:09.245Z,29.63
2017-09-29T07:30:37.813Z,30.17
2017-09-29T07:33:05.262Z,29.97
2017-09-29T07:35:32.711Z,27.63
2017-09-29T07:38:00.179Z,28.23
2017-09-29T07:40:27.665Z,26.23
2017-09-29T07:42:55.195Z,25.97
2017-09-29T07:45:26.730Z,24.40
2017-09-29T07:47:54.288Z,26.40
2017-09-29T07:50:21.741Z,23.50
2017-09-29T07:52:49.945Z,24.20
2017-09-29T07:55:17.432Z,22.13
2017-09-29T07:57:44.892Z,24.20
2017-09-29T08:00:12.352Z,23.67
2017-09-29T08:02:41.280Z,22.37
2017-09-29T08:05:08.816Z,23.37
2017-09-29T08:07:36.369Z,25.33
2017-09-29T08:10:03.836Z,22.67
2017-09-29T08:12:31.288Z,24.10
2017-09-29T08:14:58.755Z,21.73
2017-09-29T08:17:26.208Z,21.50
2017-09-29T08:19:54.486Z,21.20
2017-09-29T08:22:22.245Z,23.13
2017-09-29T08:24:49.693Z,20.70
2017-09-29T08:27:17.154Z,22.30
2017-09-29T08:29:44.610Z,24.50
2017-09-29T08:32:12.842Z,23.07
2017-09-29T08:34:40.350Z,21.97
2017-09-29T08:37:07.800Z,20.67
2017-09-29T08:39:35.274Z,20.73
2017-09-29T08:42:03.409Z,21.63
2017-09-29T08:44:30.866Z,23.00
2017-09-29T08:46:58.316Z,22.23
2017-09-29T08:49:26.249Z,23.07
2017-09-29T08:51:54.471Z,22.53
2017-09-29T08:54:21.935Z,21.57
2017-09-29T08:56:50.130Z,22.53
2017-09-29T08:59:17.608Z,20.63
2017-09-29T09:01:45.102Z,23.10
2017-09-29T09:04:12.572Z,22.57
2017-09-29T09:06:40.068Z,22.50
2017-09-29T09:09:07.541Z,25.10
2017-09-29T09:11:36.468Z,21.10
2017-09-29T09:14:03.937Z,22.80
2017-09-29T09:16:32.728Z,22.13
2017-09-29T09:19:00.185Z,21.90
2017-09-29T09:21:27.628Z,21.17
2017-09-29T09:23:55.867Z,21.37
2017-09-29T09:26:23.361Z,20.27
2017-09-29T09:28:50.801Z,20.33
2017-09-29T09:31:18.272Z,21.67
2017-09-29T09:33:45.754Z,21.73
2017-09-29T09:36:13.239Z,20.63
2017-09-29T09:38:40.697Z,21.27
2017-09-29T09:41:08.193Z,20.33
2017-09-29T09:43:35.695Z,22.53
2017-09-29T09:46:03.163Z,21.47
2017-09-29T09:48:30.638Z,22.10
2017-09-29T09:50:58.140Z,20.33
2017-09-29T09:53:25.660Z,19.37
2017-09-29T09:55:53.132Z,19.70
2017-09-29T09:58:20.577Z,20.07
2017-09-29T10:00:48.838Z,19.57
2017-09-29T10:03:16.304Z,16.60
2017-09-29T10:05:43.740Z,16.47
2017-09-29T10:08:11.269Z,18.10
2017-09-29T10:10:38.720Z,16.33
2017-09-29T10:13:06.206Z,15.73
2017-09-29T10:15:33.657Z,18.00
2017-09-29T10:18:01.175Z,16.43
2017-09-29T10:20:28.601Z,17.97
2017-09-29T10:22:56.069Z,16.77
2017-09-29T10:25:23.601Z,15.43
2017-09-29T10:27:51.049Z,15.03
2017-09-29T10:30:18.532Z,13.33
2017-09-29T10:32:46.027Z,13.90
2017-09-29T10:35:13.483Z,15.60
2017-09-29T10:37:40.911Z,12.60
2017-09-29T10:40:08.399Z,11.70
2017-09-29T10:42:35.968Z,12.13
2017-09-29T10:45:03.438Z,12.27
2017-09-29T10:47:30.872Z,11.57
2017-09-29T10:49:58.329Z,12.13
2017-09-29T10:52:25.768Z,11.53
2017-09-29T10:54:53.223Z,9.50
2017-09-29T10:57:21.450Z,9.30
2017-09-29T10:59:48.883Z,9.60
2017-09-29T11:02:17.105Z,9.97
2017-09-29T11:04:44.541Z,9.60
2017-09-29T11:07:12.005Z,10.50
2017-09-29T11:09:39.457Z,10.20
2017-09-29T11:12:06.930Z,8.53
2017-09-29T11:14:34.401Z,9.20
2017-09-29T11:17:01.831Z,9.47
2017-09-29T11:19:30.032Z,10.03
2017-09-29T11:21:57.500Z,8.70
2017-09-29T11:24:25.708Z,9.83
2017-09-29T11:26:53.157Z,7.03
2017-09-29T11:29:21.366Z,8.27
2017-09-29T11:31:49.666Z,7.67
2017-09-29T11:34:17.135Z,7.97
2017-09-29T11:36:44.705Z,9.90
2017-09-29T11:39:12.964Z,7.50
2017-09-29T11:41:40.418Z,9.70
2017-09-29T11:44:07.880Z,7.37
2017-09-29T11:46:35.317Z,8.43
2017-09-29T11:49:03.515Z,7.87
2017-09-29T11:51:31.728Z,8.80
2017-09-29T11:53:59.209Z,8.57
2017-09-29T11:56:26.725Z,8.63
2017-09-29T11:58:54.157Z,9.13
2017-09-29T12:01:21.643Z,8.20
2017-09-29T12:03:49.093Z,11.40
2017-09-29T12:06:16.522Z,6.73
2017-09-29T12:08:44.100Z,6.90
2017-09-29T12:11:11.556Z,7.97
2017-09-29T12:13:39.802Z,7.03
2017-09-29T12:16:08.004Z,7.57
2017-09-29T12:18:35.459Z,6.93
2017-09-29T12:21:03.665Z,6.00
2017-09-29T12:23:31.117Z,7.10
2017-09-29T12:25:58.560Z,8.20
2017-09-29T12:28:26.159Z,7.53
2017-09-29T12:30:53.607Z,7.00
2017-09-29T12:33:21.071Z,6.03
2017-09-29T12:35:48.625Z,7.53
2017-09-29T12:38:16.818Z,7.40
2017-09-29T12:40:44.269Z,6.70
2017-09-29T12:43:12.478Z,8.50
2017-09-29T12:45:39.959Z,8.73
2017-09-29T12:48:07.610Z,7.23
2017-09-29T12:50:35.084Z,7.30
2017-09-29T12:53:02.591Z,6.50
2017-09-29T12:55:30.795Z,6.70
2017-09-29T12:57:58.288Z,7.60
2017-09-29T13:00:25.721Z,7.53
2017-09-29T13:02:57.776Z,6.67
2017-09-29T13:05:25.225Z,7.57
2017-09-29T13:07:52.776Z,7.13
2017-09-29T13:10:20.249Z,6.20
2017-09-29T13:12:47.692Z,6.73
2017-09-29T13:15:15.948Z,6.73
2017-09-29T13:17:43.436Z,9.10
2017-09-29T13:20:10.896Z,6.67
2017-09-29T13:22:38.375Z,6.70
2017-09-29T13:25:05.907Z,6.70
2017-09-29T13:27:33.300Z,7.97
2017-09-29T13:30:00.734Z,8.40
2017-09-29T13:32:28.965Z,8.03
2017-09-29T13:34:56.400Z,9.20
2017-09-29T13:37:24.664Z,7.83
2017-09-29T13:39:52.176Z,6.97
2017-09-29T13:42:20.386Z,7.87
2017-09-29T13:44:47.848Z,9.60
2017-09-29T13:47:19.716Z,7.50
2017-09-29T13:49:47.949Z,8.30
2017-09-29T13:52:15.414Z,7.40
2017-09-29T13:54:42.855Z,7.97
2017-09-29T13:57:11.089Z,6.27
2017-09-29T13:59:38.547Z,7.30
2017-09-29T14:02:06.022Z,6.50
2017-09-29T14:04:33.477Z,7.60
2017-09-29T14:07:02.424Z,6.23
2017-09-29T14:09:29.900Z,5.73
2017-09-29T14:11:57.324Z,6.87
2017-09-29T14:14:25.557Z,7.10
2017-09-29T14:16:53.752Z,6.70
2017-09-29T14:19:21.204Z,5.77
2017-09-29T14:21:48.720Z,6.13
2017-09-29T14:24:16.955Z,6.10
2017-09-29T14:26:45.184Z,5.60
2017-09-29T14:29:12.947Z,6.47
2017-09-29T14:31:41.070Z,8.63
2017-09-29T14:34:08.871Z,5.07
2017-09-29T14:36:36.436Z,5.60
2017-09-29T14:39:03.877Z,5.40
2017-09-29T14:41:31.352Z,5.63
2017-09-29T14:43:58.840Z,5.20
2017-09-29T14:46:27.092Z,27.53
2017-09-29T14:48:54.573Z,5.10
2017-09-29T14:51:22.798Z,4.87
2017-09-29T14:53:50.380Z,5.33
2017-09-29T14:56:17.820Z,5.30
2017-09-29T14:58:46.070Z,5.00
2017-09-29T15:01:13.522Z,7.30
2017-09-29T15:03:41.012Z,4.60
2017-09-29T15:06:08.567Z,6.00
2017-09-29T15:08:36.016Z,4.83
2017-09-29T15:11:04.262Z,5.53
2017-09-29T15:13:31.739Z,4.70
2017-09-29T15:15:59.193Z,4.07
2017-09-29T15:18:26.669Z,5.20
2017-09-29T15:20:54.135Z,3.87
2017-09-29T15:23:21.603Z,3.90
2017-09-29T15:25:49.092Z,4.23
2017-09-29T15:28:16.565Z,10.30
2017-09-29T15:30:44.227Z,4.40
2017-09-29T15:33:12.504Z,9.90
2017-09-29T15:35:40.731Z,5.07
2017-09-29T15:38:08.208Z,6.43
2017-09-29T15:40:35.681Z,3.50
2017-09-29T15:43:03.873Z,4.17
2017-09-29T15:45:31.356Z,4.80
2017-09-29T15:47:58.875Z,4.60
2017-09-29T15:50:26.813Z,3.77
2017-09-29T15:52:54.347Z,4.50
2017-09-29T15:55:22.678Z,3.57
2017-09-29T15:57:50.200Z,4.23
2017-09-29T16:00:17.680Z,3.60
2017-09-29T16:02:45.172Z,3.13
2017-09-29T16:05:13.427Z,4.17
2017-09-29T16:07:40.923Z,3.90
2017-09-29T16:10:08.376Z,3.83
2017-09-29T16:12:35.840Z,3.30
2017-09-29T16:15:03.296Z,4.37
2017-09-29T16:17:30.758Z,10.00
2017-09-29T16:19:58.985Z,4.17
2017-09-29T16:22:27.283Z,4.90
2017-09-29T16:24:54.863Z,6.93
2017-09-29T16:27:22.301Z,3.80
2017-09-29T16:29:49.776Z,4.97
2017-09-29T16:32:17.316Z,5.97
2017-09-29T16:34:44.741Z,4.53
2017-09-29T16:37:12.260Z,8.17
2017-09-29T16:39:39.713Z,6.67
2017-09-29T16:42:07.163Z,5.50
2017-09-29T16:44:34.621Z,4.83
2017-09-29T16:47:02.848Z,4.33
2017-09-29T16:49:30.296Z,4.33
2017-09-29T16:51:57.878Z,8.23
2017-09-29T16:54:29.741Z,5.60
2017-09-29T16:56:57.971Z,4.53
2017-09-29T16:59:26.165Z,4.70
2017-09-29T17:01:53.636Z,4.90
2017-09-29T17:04:21.101Z,5.40
2017-09-29T17:06:48.825Z,5.00
2017-09-29T17:09:16.351Z,5.83
2017-09-29T17:11:43.815Z,5.40
2017-09-29T17:14:11.292Z,7.87
2017-09-29T17:16:38.733Z,9.50
2017-09-29T17:19:06.208Z,5.93
2017-09-29T17:21:33.697Z,6.10
2017-09-29T17:24:01.996Z,5.73
2017-09-29T17:26:30.256Z,5.50
2017-09-29T17:28:57.695Z,7.10
2017-09-29T17:31:25.148Z,7.57
2017-09-29T17:33:53.351Z,8.93
2017-09-29T17:36:20.807Z,8.27
2017-09-29T17:38:49.061Z,5.83
2017-09-29T17:41:16.492Z,5.50
2017-09-29T17:43:44.073Z,5.60
2017-09-29T17:46:11.541Z,6.47
2017-09-29T17:48:39.000Z,8.30
2017-09-29T17:51:07.196Z,7.77
2017-09-29T17:53:35.420Z,9.33
2017-09-29T17:56:02.872Z,9.00
2017-09-29T17:58:30.345Z,9.13
2017-09-29T18:00:57.802Z,11.83
2017-09-29T18:03:26.159Z,9.83
2017-09-29T18:05:53.629Z,10.20
2017-09-29T18:08:21.079Z,7.73
2017-09-29T18:10:48.552Z,7.83
2017-09-29T18:13:16.019Z,7.77
2017-09-29T18:15:43.497Z,8.57
2017-09-29T18:18:11.756Z,8.67
2017-09-29T18:20:39.431Z,9.83
2017-09-29T18:23:07.078Z,7.90
2017-09-29T18:25:34.935Z,11.40
2017-09-29T18:28:02.708Z,13.13
2017-09-29T18:30:30.499Z,10.10
2017-09-29T18:32:59.043Z,15.20
2017-09-29T18:35:26.735Z,13.23
2017-09-29T18:37:55.265Z,11.70
2017-09-29T18:40:23.581Z,11.33
2017-09-29T18:43:06.234Z,11.13
2017-09-29T18:45:36.432Z,15.93
2017-09-29T18:48:04.802Z,12.37
2017-09-29T18:50:32.562Z,13.30
2017-09-29T18:53:01.161Z,13.70
2017-09-29T18:55:29.697Z,13.03
2017-09-29T18:57:57.488Z,15.03
2017-09-29T19:00:25.258Z,16.13
2017-09-29T19:02:53.177Z,15.47
2017-09-29T19:05:20.962Z,18.60
2017-09-29T19:07:48.933Z,18.73
2017-09-29T19:10:16.407Z,17.43
2017-09-29T19:12:43.865Z,17.60
2017-09-29T19:15:12.130Z,16.23
2017-09-29T19:17:39.586Z,18.10
2017-09-29T19:20:07.056Z,17.90
2017-09-29T19:22:34.514Z,17.57
2017-09-29T19:25:01.976Z,18.50
2017-09-29T19:27:29.428Z,20.53
2017-09-29T19:29:57.659Z,19.47
2017-09-29T19:32:25.904Z,20.23
2017-09-29T19:34:53.340Z,21.30
2017-09-29T19:37:20.832Z,22.20
2017-09-29T19:39:48.372Z,20.83
2017-09-29T19:42:15.904Z,21.90
2017-09-29T19:44:44.148Z,22.43
2017-09-29T19:47:11.616Z,22.43
2017-09-29T19:49:39.862Z,23.50
2017-09-29T19:52:07.391Z,22.23
2017-09-29T19:54:34.855Z,24.50
2017-09-29T19:57:02.317Z,24.90
2017-09-29T19:59:29.815Z,23.70
2017-09-29T20:01:57.286Z,25.97
2017-09-29T20:04:24.727Z,24.30
2017-09-29T20:06:52.981Z,29.00
2017-09-29T20:09:20.466Z,25.57
2017-09-29T20:11:47.948Z,27.50
2017-09-29T20:14:15.388Z,25.67
2017-09-29T20:16:42.868Z,26.47
2017-09-29T20:19:10.350Z,26.67
2017-09-29T20:21:38.317Z,29.23
2017-09-29T20:24:05.776Z,27.80
2017-09-29T20:26:33.248Z,27.57
2017-09-29T20:29:00.708Z,27.20
2017-09-29T20:31:28.967Z,26.83
2017-09-29T20:33:56.447Z,29.80
2017-09-29T20:36:23.915Z,27.83
2017-09-29T20:38:51.372Z,32.07
2017-09-29T20:41:18.844Z,27.50
2017-09-29T20:43:46.298Z,30.83
2017-09-29T20:46:13.796Z,30.97
2017-09-29T20:48:41.256Z,31.77
2017-09-29T20:51:08.743Z,30.60
2017-09-29T20:53:36.843Z,33.00
2017-09-29T20:56:04.312Z,30.70
2017-09-29T20:58:32.300Z,35.40
2017-09-29T21:00:59.773Z,36.20
2017-09-29T21:03:27.242Z,35.33
2017-09-29T21:05:54.724Z,34.57
2017-09-29T21:08:22.250Z,35.60
2017-09-29T21:10:50.500Z,35.70
2017-09-29T21:13:17.964Z,37.20
2017-09-29T21:15:45.440Z,37.23
2017-09-29T21:18:12.911Z,35.70
2017-09-29T21:20:40.508Z,36.90
2017-09-29T21:23:07.984Z,35.67
2017-09-29T21:25:35.438Z,34.97
2017-09-29T21:28:02.940Z,38.80
2017-09-29T21:30:30.420Z,37.03
2017-09-29T21:32:57.931Z,39.17
2017-09-29T21:35:25.393Z,35.30
2017-09-29T21:37:53.599Z,37.50
2017-09-29T21:40:21.077Z,39.93
2017-09-29T21:42:48.575Z,38.63
2017-09-29T21:45:16.139Z,37.33
2017-09-29T21:47:43.622Z,37.37
2017-09-29T21:50:11.092Z,35.17
2017-09-29T21:52:38.561Z,37.10
2017-09-29T21:55:06.786Z,38.03
2017-09-29T21:57:34.244Z,36.40
2017-09-29T22:00:01.722Z,37.57
2017-09-29T22:02:29.181Z,39.57
2017-09-29T22:04:56.671Z,37.87
2017-09-29T22:07:24.153Z,40.87
2017-09-29T22:09:52.481Z,39.33
2017-09-29T22:12:19.951Z,41.60
2017-09-29T22:14:47.445Z,39.20
2017-09-29T22:17:14.901Z,39.93
2017-09-29T22:19:42.373Z,37.97
2017-09-29T22:22:09.840Z,39.70
2017-09-29T22:24:37.295Z,38.23
2017-09-29T22:27:04.790Z,43.67
2017-09-29T22:29:32.272Z,40.60
2017-09-29T22:31:59.737Z,37.93
2017-09-29T22:34:27.209Z,37.70
2017-09-29T22:36:54.693Z,41.43
2017-09-29T22:39:22.143Z,41.63
2017-09-29T22:41:49.592Z,39.97
2017-09-29T22:44:17.059Z,41.60
2017-09-29T22:46:45.287Z,41.90
2017-09-29T22:49:12.775Z,40.87
2017-09-29T22:51:40.264Z,40.30
2017-09-29T22:54:07.734Z,41.93
2017-09-29T22:56:35.191Z,40.90
2017-09-29T22:59:02.675Z,39.73
2017-09-29T23:01:30.129Z,43.00
2017-09-29T23:03:57.571Z,36.53
2017-09-29T23:06:25.861Z,40.67
2017-09-29T23:08:53.324Z,40.30
2017-09-29T23:11:20.802Z,39.87
2017-09-29T23:13:48.241Z,37.23
2017-09-29T23:16:15.696Z,37.73
2017-09-29T23:18:43.212Z,40.03
2017-09-29T23:21:10.683Z,39.40
2017-09-29T23:23:38.143Z,41.93
2017-09-29T23:26:05.674Z,38.60
2017-09-29T23:28:33.928Z,37.83
2017-09-29T23:31:01.375Z,41.87
2017-09-29T23:33:28.836Z,40.20
2017-09-29T23:35:56.300Z,38.30
2017-09-29T23:38:23.764Z,39.17
2017-09-29T23:40:51.239Z,42.40
2017-09-29T23:43:19.448Z,41.87
2017-09-29T23:45:47.025Z,39.53
2017-09-29T23:48:14.465Z,39.73
2017-09-29T23:50:41.920Z,38.57
2017-09-29T23:53:09.401Z,38.17
2017-09-29T23:55:36.847Z,39.27
2017-09-29T23:58:04.372Z,38.77
